Herschel Island, Yukon

Past 24 Hour Conditions

Date / Time
(PST)
Conditions Temp
(°F)
Humidity
(%)
Dew Point
(°F)
Wind
(mph)
Pressure
(inches)
Vis
(mi)
Wind Chill
22 November 2014
2:00 N/A -1 85 -5 S 4 30.0 N/A -10
1:00 N/A -2   85 -5 S 5 30.0 N/A -13
00:00 N/A -2   85 -5 S 6 30.0 N/A -14
21 November 2014
23:00 N/A -2   85 -5 S 6 30.0 N/A -14
22:00 N/A -1 86 -4 S 8 30.0 N/A -15
21:00 N/A 1 86 -3 S 8 30.0 N/A -13
20:00 N/A 3 88 1 SSE 8 30.0 N/A -10
19:00 N/A 2 87 -1 S 8 30.0 N/A -12
18:00 N/A 1 86 -2 S 8 30.0 N/A -13
17:00 N/A 1 86 -2 S 8 30.0 N/A -13
16:00 N/A 3 87 0 SSE 9 30.0 N/A -12
15:00 N/A 3 87 0 S 9 30.0 N/A -12
14:00 N/A 2 87 -2 S 6 30.1 N/A -10
13:00 N/A 1 87 -2 S 8 30.1 N/A -13
12:00 N/A 3 87 0 S 9 30.1 N/A -12
11:00 N/A 3 88 1 S 10 30.1 N/A -12
10:00 N/A 5 88 3 SSE 13 30.1 N/A -12
9:00 N/A 6 89 3 SSE 14 30.1 N/A -11
8:00 N/A 3 88 0 S 12 30.1 N/A -14
7:00 N/A 3 87 0 S 11 30.1 N/A -13
6:00 N/A 6 89 4 SSE 13 30.1 N/A -11
5:00 N/A 4 88 1 S 12 30.1 N/A -13
4:00 N/A 4 87 1 S 11 30.1 N/A -12
3:00 N/A 8   88 5 SE 21 gust 26 30.2 N/A -13
2:00 N/A 7 87 4 SE 21 30.2 N/A -13
N/A Not available
↑ Highest temperature
↓ Lowest temperature
* Value not significant.

If you require additional historical weather information, please visit Climate Data Online.

Date modified: